LGMT

Details ICAO LGMT (MJT)
Name Mitilini
Region Greece
Timezone Europe/Athens (UTC+2.0)
Plans Departing 254
Arriving 324
Stats Elevation 60 ft / 18 m (AMSL)
Location 39.057900° 26.598500°
Runways 1
Magnetic Variation 5.532° E
Sunrise 2024-03-04 04:43:03 UTC / 2024-03-04 06:43:03 Local
Sunset 2024-03-04 16:10:26 UTC / 2024-03-04 18:10:26 Local
Advertisement - Login to hide

Runways

ID Width Length Bearing (true/mag) Surface Threshold Overrun Markings Lighting
14 148 ft / 45 m 7,902 ft / 2,408 m 148.11° / 142.58° CONCRETE 269 ft / 82 m 0 ft / 0 m APP CENTERLINE EDGE THRESHOLD MALSF
32 148 ft / 45 m 7,902 ft / 2,408 m 328.12° / 322.59° CONCRETE 1,762 ft / 537 m 0 ft / 0 m APP CENTERLINE EDGE THRESHOLD MALSF

Map

Weather


0- 5 10 15 20 25 30 35+ Temperature / °C

Clouds and Precipitation
Forecast for 2024-03-04 18:00 UTC. Updated 17 minutes ago

Ground ~20,000 ft ~40,000 ft Winds

METAR

LGMT 041520Z 21004KT 9999 FEW025 18/06 Q1012

TAF

Not found

Frequencies

Approach 123.85 MHz Mitlini Approach
Tower 123.85 MHz Mitlini Tower
Warning: Do not use this data for real-world aviation or navigation. No guarantee of current accuracy is given.